Ten'yo — JBBC — position and weather

sailwx.info

Track history (hours):
 
Tides and Currents Weather Stations Pressure Air Temp Water Temp Dewpoint Dewpoint Depression Visibility Wind Speed Wind Dir Waves Ship Positions

Oceanographic research ship Ten'yo (Japan)

Detailed information on ship capabilities available from University of Delaware's Ocean Information Center.

Last reported at 2020-Mar-21 01:31 UTC. Time now 2020-Mar-29 14:13 UTC.
Position N 35°38' E 139°47'.
Warning: this ship's position is 8 days out of date.

Length 56 m; draft 3 m.

Type: Other ship. MMSI: 431100350.

Date/timePositionNaut miles runAvg speedWind from/ knotsBaromVisibWave heightAir tempDewpointWater temp
2020-Mar-21 01:31N 35°38' E 139°47'0 0.0
2020-Mar-21 01:22N 35°38' E 139°47'0 0.0
2020-Mar-21 00:57N 35°38' E 139°47'6 5.7
2020-Mar-20 23:58N 35°33' E 139°50'4 3.5
2020-Mar-20 22:56N 35°34' E 139°55'12 8.7
2020-Mar-20 21:31N 35°23' E 139°46'510.8
2020-Mar-20 21:01N 35°18' E 139°45'611.2
2020-Mar-20 20:29N 35°13' E 139°47'5712.6
2020-Mar-20 15:59N 34°32' E 138°58'2012.6
2020-Mar-20 14:25N 34°31' E 138°34'512.4
2020-Mar-20 13:59N 34°30' E 138°28'171 8.0
2020-Mar-19 16:31N 34°27' E 135°01'15 7.4
2020-Mar-19 14:31N 34°31' E 134°43'612.5
2020-Mar-19 14:00N 34°29' E 134°36'712.5
2020-Mar-19 13:24N 34°26' E 134°28'  
Track history (hours):
 
Tides and Currents Weather Stations Pressure Air Temp Water Temp Dewpoint Dewpoint Depression Visibility Wind Speed Wind Dir Waves Ship Positions

Oceanographic research ship Ten'yo (Japan)

Detailed information on ship capabilities available from University of Delaware's Ocean Information Center.

Last reported at 2020-Mar-21 01:31 UTC. Time now 2020-Mar-29 14:13 UTC.
Position N 35°38' E 139°47'.
Warning: this ship's position is 8 days out of date.

Length 56 m; draft 3 m.

Type: Other ship. MMSI: 431100350.

Date/timePositionNaut miles runAvg speedWind from/ knotsBaromVisibWave heightAir tempDewpointWater temp
2020-Mar-21 01:31N 35°38' E 139°47'0 0.0
2020-Mar-21 01:22N 35°38' E 139°47'0 0.0
2020-Mar-21 00:57N 35°38' E 139°47'6 5.7
2020-Mar-20 23:58N 35°33' E 139°50'4 3.5
2020-Mar-20 22:56N 35°34' E 139°55'12 8.7
2020-Mar-20 21:31N 35°23' E 139°46'510.8
2020-Mar-20 21:01N 35°18' E 139°45'611.2
2020-Mar-20 20:29N 35°13' E 139°47'5712.6
2020-Mar-20 15:59N 34°32' E 138°58'2012.6
2020-Mar-20 14:25N 34°31' E 138°34'512.4
2020-Mar-20 13:59N 34°30' E 138°28'171 8.0
2020-Mar-19 16:31N 34°27' E 135°01'15 7.4
2020-Mar-19 14:31N 34°31' E 134°43'612.5
2020-Mar-19 14:00N 34°29' E 134°36'712.5
2020-Mar-19 13:24N 34°26' E 134°28'  

Dump ship's entire track history